PRIVATE WETTERSTATION BILLIGHEIM-ALLFELD                       ZURCK
Wetterdaten: Montag, 26.05.2014
Datum Zeit Temp. A. Temp. A. min Temp. A. max Feuchte A. Luftdruck Regen Wind Richtung Richtung Sonnenschein ET Solar Taupunkt Windchill Windben Empfang
26.05.2014 00:00 14,8 C 14,8 C 14,8 C 69 % 1015,4 hPa 0,0 l/m 0,0 km/h (0 Bft) N 0 0 min 0,025 mm 0 W/m 9,2 C 14,8 C 0,0 km/h (0 Bft) 100 %
26.05.2014 00:10 14,8 C 14,8 C 14,8 C 68 % 1015,4 hPa 0,0 l/m 0,0 km/h (0 Bft) NW 315 0 min 0,000 mm 0 W/m 9,0 C 14,8 C 3,2 km/h (1 Bft) 90 %
26.05.2014 00:20 14,9 C 14,8 C 14,9 C 69 % 1015,3 hPa 0,0 l/m 0,0 km/h (0 Bft) NW 315 0 min 0,000 mm 0 W/m 9,3 C 14,9 C 4,8 km/h (1 Bft) 100 %
26.05.2014 00:30 15,1 C 14,9 C 15,1 C 67 % 1015,3 hPa 0,0 l/m 0,0 km/h (0 Bft) SW 225 0 min 0,000 mm 0 W/m 9,0 C 15,1 C 3,2 km/h (1 Bft) 100 %
26.05.2014 00:40 15,1 C 15,1 C 15,1 C 68 % 1015,4 hPa 0,0 l/m 0,0 km/h (0 Bft) SW 225 0 min 0,000 mm 0 W/m 9,2 C 15,1 C 3,2 km/h (1 Bft) 100 %
26.05.2014 00:50 15,2 C 15,1 C 15,2 C 67 % 1015,3 hPa 0,0 l/m 0,0 km/h (0 Bft) SW 225 0 min 0,000 mm 0 W/m 9,1 C 15,2 C 3,2 km/h (1 Bft) 100 %
26.05.2014 01:00 15,3 C 15,2 C 15,3 C 68 % 1015,3 hPa 0,0 l/m 0,0 km/h (0 Bft) SW 225 0 min 0,025 mm 0 W/m 9,4 C 15,3 C 4,8 km/h (1 Bft) 100 %
26.05.2014 01:10 15,3 C 15,3 C 15,3 C 67 % 1015,2 hPa 0,0 l/m 0,0 km/h (0 Bft) SW 225 0 min 0,000 mm 0 W/m 9,2 C 15,3 C 3,2 km/h (1 Bft) 100 %
26.05.2014 01:20 15,4 C 15,3 C 15,4 C 66 % 1015,1 hPa 0,0 l/m 0,0 km/h (0 Bft) SW 225 0 min 0,000 mm 0 W/m 9,1 C 15,4 C 3,2 km/h (1 Bft) 100 %
26.05.2014 01:30 15,4 C 15,4 C 15,4 C 67 % 1015,0 hPa 0,0 l/m 0,0 km/h (0 Bft) W 270 0 min 0,000 mm 0 W/m 9,3 C 15,4 C 3,2 km/h (1 Bft) 100 %
26.05.2014 01:40 15,4 C 15,4 C 15,4 C 66 % 1015,7 hPa 0,0 l/m 3,2 km/h (1 Bft) W-SW 247 0 min 0,000 mm 0 W/m 9,1 C 15,4 C 22,5 km/h (4 Bft) 100 %
26.05.2014 01:50 15,6 C 15,4 C 15,6 C 65 % 1015,9 hPa 0,0 l/m 6,4 km/h (2 Bft) SO 135 0 min 0,000 mm 0 W/m 9,0 C 15,6 C 17,7 km/h (3 Bft) 100 %
26.05.2014 02:00 15,6 C 15,6 C 15,6 C 65 % 1016,0 hPa 0,0 l/m 4,8 km/h (1 Bft) S-SO 157 0 min 0,025 mm 0 W/m 9,0 C 15,6 C 14,5 km/h (3 Bft) 100 %
26.05.2014 02:10 15,6 C 15,6 C 15,6 C 67 % 1015,9 hPa 0,0 l/m 1,6 km/h (1 Bft) S-SO 157 0 min 0,000 mm 0 W/m 9,5 C 15,6 C 8,0 km/h (2 Bft) 100 %
26.05.2014 02:20 15,5 C 15,5 C 15,6 C 68 % 1015,7 hPa 0,0 l/m 0,0 km/h (0 Bft) O-SO 112 0 min 0,000 mm 0 W/m 9,6 C 15,5 C 3,2 km/h (1 Bft) 100 %
26.05.2014 02:30 15,3 C 15,3 C 15,4 C 74 % 1016,0 hPa 0,2 l/m 0,0 km/h (0 Bft) N 360 0 min 0,000 mm 0 W/m 10,7 C 15,3 C 3,2 km/h (1 Bft) 100 %
26.05.2014 02:40 15,1 C 15,1 C 15,3 C 79 % 1016,2 hPa 2,6 l/m 0,0 km/h (0 Bft) S-SW 202 0 min 0,000 mm 0 W/m 11,5 C 15,1 C 4,8 km/h (1 Bft) 100 %
26.05.2014 02:50 14,3 C 14,3 C 15,0 C 82 % 1016,1 hPa 0,0 l/m 0,0 km/h (0 Bft) S-SW 202 0 min 0,000 mm 0 W/m 11,3 C 14,3 C 1,6 km/h (1 Bft) 99 %
26.05.2014 03:00 13,7 C 13,7 C 14,3 C 84 % 1015,7 hPa 0,4 l/m 0,0 km/h (0 Bft) N 360 0 min 0,025 mm 0 W/m 11,0 C 13,7 C 4,8 km/h (1 Bft) 100 %
26.05.2014 03:10 13,3 C 13,3 C 13,7 C 85 % 1015,5 hPa 0,0 l/m 0,0 km/h (0 Bft) N 0 0 min 0,000 mm 0 W/m 10,8 C 13,3 C 0,0 km/h (0 Bft) 100 %
26.05.2014 03:20 13,1 C 13,1 C 13,3 C 86 % 1015,5 hPa 0,0 l/m 0,0 km/h (0 Bft) N 0 0 min 0,000 mm 0 W/m 10,8 C 13,1 C 0,0 km/h (0 Bft) 100 %
26.05.2014 03:30 13,1 C 13,1 C 13,2 C 86 % 1015,5 hPa 0,4 l/m 0,0 km/h (0 Bft) N 0 0 min 0,000 mm 0 W/m 10,8 C 13,1 C 0,0 km/h (0 Bft) 100 %
26.05.2014 03:40 13,1 C 13,1 C 13,1 C 86 % 1015,2 hPa 0,0 l/m 0,0 km/h (0 Bft) NO 45 0 min 0,000 mm 0 W/m 10,8 C 13,1 C 1,6 km/h (1 Bft) 100 %
26.05.2014 03:50 13,0 C 13,0 C 13,1 C 86 % 1015,3 hPa 0,0 l/m 0,0 km/h (0 Bft) NO 45 0 min 0,000 mm 0 W/m 10,7 C 13,0 C 3,2 km/h (1 Bft) 100 %
26.05.2014 04:00 12,8 C 12,8 C 13,0 C 86 % 1015,0 hPa 0,0 l/m 0,0 km/h (0 Bft) N-NW 337 0 min 0,000 mm 0 W/m 10,5 C 12,8 C 4,8 km/h (1 Bft) 100 %
26.05.2014 04:10 12,7 C 12,7 C 12,8 C 87 % 1014,8 hPa 0,0 l/m 0,0 km/h (0 Bft) N-NW 337 0 min 0,000 mm 0 W/m 10,6 C 12,7 C 4,8 km/h (1 Bft) 99 %
26.05.2014 04:20 12,6 C 12,6 C 12,7 C 87 % 1014,6 hPa 0,0 l/m 0,0 km/h (0 Bft) NW 315 0 min 0,000 mm 0 W/m 10,5 C 12,6 C 1,6 km/h (1 Bft) 98 %
26.05.2014 04:30 12,6 C 12,6 C 12,6 C 87 % 1014,7 hPa 0,4 l/m 0,0 km/h (0 Bft) NO 45 0 min 0,000 mm 0 W/m 10,5 C 12,6 C 4,8 km/h (1 Bft) 100 %
26.05.2014 04:40 12,5 C 12,5 C 12,6 C 87 % 1014,5 hPa 0,0 l/m 0,0 km/h (0 Bft) W-NW 292 0 min 0,000 mm 0 W/m 10,4 C 12,5 C 3,2 km/h (1 Bft) 100 %
26.05.2014 04:50 12,4 C 12,4 C 12,5 C 87 % 1014,0 hPa 0,0 l/m 0,0 km/h (0 Bft) N 0 0 min 0,000 mm 0 W/m 10,3 C 12,4 C 0,0 km/h (0 Bft) 100 %
26.05.2014 05:00 12,4 C 12,4 C 12,4 C 87 % 1014,2 hPa 0,0 l/m 0,0 km/h (0 Bft) W-NW 292 0 min 0,000 mm 0 W/m 10,3 C 12,4 C 3,2 km/h (1 Bft) 100 %
26.05.2014 05:10 12,3 C 12,3 C 12,4 C 87 % 1014,3 hPa 0,0 l/m 0,0 km/h (0 Bft) W-NW 292 0 min 0,000 mm 0 W/m 10,2 C 12,3 C 3,2 km/h (1 Bft) 99 %
26.05.2014 05:20 12,3 C 12,3 C 12,3 C 87 % 1013,8 hPa 0,0 l/m 4,8 km/h (1 Bft) NW 315 0 min 0,000 mm 0 W/m 10,2 C 12,3 C 11,3 km/h (2 Bft) 100 %
26.05.2014 05:30 12,4 C 12,3 C 12,4 C 87 % 1013,6 hPa 0,0 l/m 1,6 km/h (1 Bft) N-NW 337 0 min 0,000 mm 0 W/m 10,3 C 12,4 C 6,4 km/h (2 Bft) 100 %
26.05.2014 05:40 12,3 C 12,3 C 12,4 C 87 % 1013,7 hPa 0,0 l/m 0,0 km/h (0 Bft) N-NW 337 0 min 0,000 mm 0 W/m 10,2 C 12,3 C 1,6 km/h (1 Bft) 100 %
26.05.2014 05:50 12,3 C 12,3 C 12,3 C 87 % 1014,0 hPa 0,0 l/m 1,6 km/h (1 Bft) S-SW 202 0 min 0,000 mm 0 W/m 10,2 C 12,3 C 4,8 km/h (1 Bft) 100 %
26.05.2014 06:00 12,3 C 12,3 C 12,3 C 87 % 1014,2 hPa 0,0 l/m 0,0 km/h (0 Bft) S-SW 202 0 min 0,000 mm 0 W/m 10,2 C 12,3 C 6,4 km/h (2 Bft) 99 %
26.05.2014 06:10 12,3 C 12,3 C 12,3 C 87 % 1014,3 hPa 0,0 l/m 0,0 km/h (0 Bft) S-SW 202 0 min 0,000 mm 0 W/m 10,2 C 12,3 C 3,2 km/h (1 Bft) 100 %
26.05.2014 06:20 12,3 C 12,3 C 12,3 C 87 % 1014,4 hPa 0,0 l/m 0,0 km/h (0 Bft) S-SW 202 0 min 0,000 mm 5 W/m 10,2 C 12,3 C 1,6 km/h (1 Bft) 100 %
26.05.2014 06:30 12,4 C 12,3 C 12,4 C 87 % 1014,3 hPa 0,0 l/m 0,0 km/h (0 Bft) S-SW 202 0 min 0,000 mm 9 W/m 10,3 C 12,4 C 3,2 km/h (1 Bft) 100 %
26.05.2014 06:40 12,4 C 12,3 C 12,4 C 87 % 1014,3 hPa 0,0 l/m 1,6 km/h (1 Bft) S-SW 202 0 min 0,000 mm 11 W/m 10,3 C 12,4 C 4,8 km/h (1 Bft) 100 %
26.05.2014 06:50 12,5 C 12,4 C 12,5 C 87 % 1014,2 hPa 0,0 l/m 0,0 km/h (0 Bft) N 0 0 min 0,000 mm 25 W/m 10,4 C 12,5 C 0,0 km/h (0 Bft) 100 %
26.05.2014 07:00 12,4 C 12,4 C 12,5 C 87 % 1014,2 hPa 0,0 l/m 1,6 km/h (1 Bft) W 270 0 min 0,000 mm 40 W/m 10,3 C 12,4 C 3,2 km/h (1 Bft) 100 %
26.05.2014 07:10 12,4 C 12,4 C 12,4 C 87 % 1014,2 hPa 0,0 l/m 0,0 km/h (0 Bft) W 270 0 min 0,000 mm 53 W/m 10,3 C 12,4 C 3,2 km/h (1 Bft) 100 %
26.05.2014 07:20 12,5 C 12,4 C 12,5 C 87 % 1014,6 hPa 0,0 l/m 0,0 km/h (0 Bft) W 270 0 min 0,000 mm 56 W/m 10,4 C 12,5 C 3,2 km/h (1 Bft) 100 %
26.05.2014 07:30 12,6 C 12,4 C 12,6 C 87 % 1015,0 hPa 0,0 l/m 1,6 km/h (1 Bft) S-SW 202 0 min 0,000 mm 56 W/m 10,5 C 12,6 C 8,0 km/h (2 Bft) 100 %
26.05.2014 07:40 12,6 C 12,6 C 12,6 C 87 % 1014,9 hPa 0,0 l/m 1,6 km/h (1 Bft) S-SO 157 0 min 0,000 mm 28 W/m 10,5 C 12,6 C 9,7 km/h (2 Bft) 100 %
26.05.2014 07:50 12,6 C 12,6 C 12,6 C 87 % 1014,8 hPa 0,0 l/m 0,0 km/h (0 Bft) S-SO 157 0 min 0,000 mm 54 W/m 10,5 C 12,6 C 1,6 km/h (1 Bft) 100 %
26.05.2014 08:00 12,6 C 12,6 C 12,6 C 87 % 1014,6 hPa 0,0 l/m 0,0 km/h (0 Bft) S-SO 157 0 min 0,025 mm 63 W/m 10,5 C 12,6 C 1,6 km/h (1 Bft) 100 %
26.05.2014 08:10 12,6 C 12,6 C 12,6 C 87 % 1014,8 hPa 0,0 l/m 0,0 km/h (0 Bft) S-SO 157 0 min 0,000 mm 46 W/m 10,5 C 12,6 C 1,6 km/h (1 Bft) 100 %
26.05.2014 08:20 12,7 C 12,6 C 12,7 C 87 % 1014,5 hPa 0,0 l/m 0,0 km/h (0 Bft) N 0 0 min 0,000 mm 42 W/m 10,6 C 12,7 C 0,0 km/h (0 Bft) 100 %
26.05.2014 08:30 12,7 C 12,7 C 12,7 C 87 % 1014,6 hPa 0,0 l/m 0,0 km/h (0 Bft) S-SO 157 0 min 0,000 mm 35 W/m 10,6 C 12,7 C 4,8 km/h (1 Bft) 100 %
26.05.2014 08:40 12,7 C 12,7 C 12,7 C 87 % 1014,8 hPa 0,0 l/m 0,0 km/h (0 Bft) SW 225 0 min 0,000 mm 30 W/m 10,6 C 12,7 C 3,2 km/h (1 Bft) 100 %
26.05.2014 08:50 12,7 C 12,7 C 12,8 C 87 % 1014,6 hPa 0,8 l/m 0,0 km/h (0 Bft) SW 225 0 min 0,000 mm 37 W/m 10,6 C 12,7 C 3,2 km/h (1 Bft) 100 %
26.05.2014 09:00 12,7 C 12,7 C 12,7 C 87 % 1014,4 hPa 0,8 l/m 1,6 km/h (1 Bft) SW 225 0 min 0,025 mm 56 W/m 10,6 C 12,7 C 4,8 km/h (1 Bft) 100 %
26.05.2014 09:10 12,7 C 12,7 C 12,7 C 87 % 1014,6 hPa 0,4 l/m 0,0 km/h (0 Bft) W 270 0 min 0,000 mm 62 W/m 10,6 C 12,7 C 4,8 km/h (1 Bft) 100 %
26.05.2014 09:20 12,8 C 12,7 C 12,8 C 87 % 1014,4 hPa 0,2 l/m 0,0 km/h (0 Bft) W 270 10 min 0,000 mm 165 W/m 10,7 C 12,8 C 1,6 km/h (1 Bft) 100 %
26.05.2014 09:30 13,1 C 12,8 C 13,1 C 87 % 1014,4 hPa 0,0 l/m 0,0 km/h (0 Bft) W 270 10 min 0,000 mm 345 W/m 11,0 C 13,1 C 1,6 km/h (1 Bft) 100 %
26.05.2014 09:40 13,7 C 13,1 C 13,7 C 87 % 1014,5 hPa 0,0 l/m 0,0 km/h (0 Bft) W 270 10 min 0,000 mm 388 W/m 11,6 C 13,7 C 4,8 km/h (1 Bft) 100 %
26.05.2014 09:50 14,0 C 13,7 C 14,0 C 87 % 1014,4 hPa 0,0 l/m 0,0 km/h (0 Bft) S-SW 202 10 min 0,000 mm 390 W/m 11,9 C 14,0 C 4,8 km/h (1 Bft) 100 %
26.05.2014 10:00 14,1 C 14,0 C 14,1 C 87 % 1014,5 hPa 0,0 l/m 0,0 km/h (0 Bft) S-SW 202 10 min 0,102 mm 359 W/m 12,0 C 14,1 C 1,6 km/h (1 Bft) 100 %
26.05.2014 10:10 14,3 C 14,1 C 14,3 C 87 % 1014,5 hPa 0,0 l/m 0,0 km/h (0 Bft) S-SW 202 10 min 0,000 mm 439 W/m 12,2 C 14,3 C 1,6 km/h (1 Bft) 100 %
26.05.2014 10:20 14,6 C 14,3 C 14,6 C 87 % 1014,3 hPa 0,0 l/m 0,0 km/h (0 Bft) S 180 10 min 0,000 mm 385 W/m 12,5 C 14,6 C 4,8 km/h (1 Bft) 99 %
26.05.2014 10:30 14,6 C 14,6 C 14,6 C 87 % 1014,2 hPa 0,0 l/m 0,0 km/h (0 Bft) N-NW 337 10 min 0,000 mm 360 W/m 12,5 C 14,6 C 1,6 km/h (1 Bft) 100 %
26.05.2014 10:40 14,9 C 14,6 C 14,9 C 87 % 1014,2 hPa 0,0 l/m 0,0 km/h (0 Bft) N-NW 337 10 min 0,000 mm 519 W/m 12,8 C 14,9 C 1,6 km/h (1 Bft) 100 %
26.05.2014 11:00 15,6 C 14,6 C 15,6 C 87 % 1014,3 hPa 0,0 l/m 0,2 km/h (0 Bft) O-SO 115 20 min 0,154 mm 250 W/m 13,4 C 15,6 C 6,4 km/h (2 Bft) 100 %
26.05.2014 11:10 15,5 C 15,5 C 15,6 C 87 % 1014,3 hPa 0,0 l/m 0,0 km/h (0 Bft) O-SO 116 0 min 0,000 mm 125 W/m 13,3 C 15,5 C 1,6 km/h (1 Bft) 100 %
26.05.2014 11:20 15,5 C 15,5 C 15,6 C 86 % 1014,2 hPa 0,0 l/m 0,0 km/h (0 Bft) S 172 10 min 0,000 mm 329 W/m 13,2 C 15,5 C 1,6 km/h (1 Bft) 100 %
26.05.2014 11:30 15,6 C 15,5 C 15,6 C 87 % 1014,1 hPa 0,0 l/m 1,1 km/h (1 Bft) S 172 10 min 0,000 mm 246 W/m 13,4 C 15,6 C 6,4 km/h (2 Bft) 100 %
26.05.2014 11:40 15,7 C 15,5 C 15,7 C 87 % 1014,0 hPa 0,0 l/m 0,3 km/h (0 Bft) S 172 10 min 0,000 mm 288 W/m 13,5 C 15,7 C 3,2 km/h (1 Bft) 100 %
26.05.2014 11:50 15,7 C 15,7 C 15,7 C 86 % 1014,1 hPa 0,0 l/m 0,8 km/h (0 Bft) S 173 10 min 0,000 mm 200 W/m 13,4 C 15,7 C 4,8 km/h (1 Bft) 100 %
26.05.2014 12:00 15,7 C 15,6 C 15,7 C 87 % 1014,0 hPa 0,0 l/m 0,9 km/h (0 Bft) S-SW 205 10 min 0,000 mm 251 W/m 13,5 C 15,7 C 4,8 km/h (1 Bft) 100 %
26.05.2014 12:10 15,9 C 15,7 C 15,9 C 86 % 1013,9 hPa 0,0 l/m 1,4 km/h (1 Bft) S-SW 195 10 min 0,127 mm 190 W/m 13,6 C 15,9 C 6,4 km/h (2 Bft) 100 %
26.05.2014 12:20 16,0 C 15,9 C 16,0 C 85 % 1013,7 hPa 0,0 l/m 0,0 km/h (0 Bft) S-SW 194 10 min 0,000 mm 162 W/m 13,5 C 16,0 C 1,6 km/h (1 Bft) 100 %
26.05.2014 12:30 15,9 C 15,9 C 16,0 C 85 % 1013,8 hPa 0,0 l/m 0,0 km/h (0 Bft) S-SW 194 10 min 0,000 mm 188 W/m 13,4 C 15,9 C 1,6 km/h (1 Bft) 99 %
26.05.2014 12:40 16,2 C 15,9 C 16,2 C 86 % 1013,5 hPa 0,0 l/m 0,0 km/h (0 Bft) S-SW 197 10 min 0,000 mm 316 W/m 13,9 C 16,2 C 1,6 km/h (1 Bft) 100 %
26.05.2014 12:50 16,4 C 16,2 C 16,4 C 86 % 1013,4 hPa 0,0 l/m 0,3 km/h (0 Bft) NW 309 10 min 0,000 mm 366 W/m 14,1 C 16,4 C 3,2 km/h (1 Bft) 100 %
26.05.2014 13:00 16,8 C 16,4 C 16,8 C 86 % 1013,4 hPa 0,0 l/m 2,4 km/h (1 Bft) N-NW 329 10 min 0,127 mm 302 W/m 14,4 C 16,8 C 8,0 km/h (2 Bft) 100 %
26.05.2014 13:10 17,0 C 16,8 C 17,0 C 85 % 1013,3 hPa 0,0 l/m 0,6 km/h (0 Bft) N-NW 330 10 min 0,000 mm 309 W/m 14,5 C 17,0 C 4,8 km/h (1 Bft) 100 %
26.05.2014 13:20 17,1 C 17,0 C 17,1 C 84 % 1013,3 hPa 0,0 l/m 1,5 km/h (1 Bft) NW 323 10 min 0,000 mm 360 W/m 14,4 C 17,1 C 6,4 km/h (2 Bft) 100 %
26.05.2014 13:30 17,4 C 17,1 C 17,4 C 85 % 1013,2 hPa 0,0 l/m 2,3 km/h (1 Bft) NW 323 10 min 0,000 mm 450 W/m 14,8 C 17,4 C 6,4 km/h (2 Bft) 100 %
26.05.2014 13:40 17,8 C 17,4 C 17,8 C 82 % 1013,2 hPa 0,0 l/m 2,2 km/h (1 Bft) NW 323 10 min 0,000 mm 582 W/m 14,7 C 17,8 C 8,0 km/h (2 Bft) 100 %
26.05.2014 13:50 18,2 C 17,8 C 18,2 C 82 % 1013,0 hPa 0,0 l/m 1,3 km/h (1 Bft) NW 325 10 min 0,000 mm 364 W/m 15,1 C 18,2 C 6,4 km/h (2 Bft) 100 %
26.05.2014 14:00 18,3 C 18,2 C 18,3 C 81 % 1012,9 hPa 0,0 l/m 0,0 km/h (0 Bft) NW 325 10 min 0,229 mm 455 W/m 15,0 C 18,3 C 1,6 km/h (1 Bft) 99 %
26.05.2014 14:10 18,6 C 18,3 C 18,6 C 80 % 1012,8 hPa 0,0 l/m 2,7 km/h (1 Bft) NW 317 10 min 0,000 mm 406 W/m 15,1 C 18,6 C 8,0 km/h (2 Bft) 100 %
26.05.2014 14:20 18,7 C 18,6 C 18,7 C 78 % 1012,6 hPa 0,0 l/m 0,5 km/h (0 Bft) NW 317 10 min 0,000 mm 533 W/m 14,8 C 18,7 C 6,4 km/h (2 Bft) 100 %
26.05.2014 14:30 19,1 C 18,7 C 19,1 C 78 % 1012,5 hPa 0,0 l/m 1,0 km/h (0 Bft) NW 318 10 min 0,000 mm 555 W/m 15,2 C 19,1 C 6,4 km/h (2 Bft) 100 %
26.05.2014 14:40 19,1 C 19,1 C 19,2 C 75 % 1012,5 hPa 0,0 l/m 0,7 km/h (0 Bft) NW 325 10 min 0,000 mm 343 W/m 14,6 C 19,1 C 6,4 km/h (2 Bft) 100 %
26.05.2014 14:50 19,0 C 19,0 C 19,1 C 76 % 1012,3 hPa 0,0 l/m 0,0 km/h (0 Bft) NW 323 10 min 0,000 mm 330 W/m 14,7 C 19,0 C 1,6 km/h (1 Bft) 100 %
26.05.2014 15:00 19,1 C 19,0 C 19,1 C 76 % 1012,1 hPa 0,0 l/m 0,5 km/h (0 Bft) NW 323 10 min 0,254 mm 418 W/m 14,8 C 19,1 C 4,8 km/h (1 Bft) 100 %
26.05.2014 15:10 19,2 C 19,1 C 19,3 C 76 % 1012,1 hPa 0,0 l/m 0,8 km/h (0 Bft) N-NW 333 10 min 0,000 mm 308 W/m 14,9 C 19,2 C 4,8 km/h (1 Bft) 100 %
26.05.2014 15:20 19,1 C 19,1 C 19,2 C 75 % 1012,0 hPa 0,0 l/m 0,0 km/h (0 Bft) N-NW 333 10 min 0,000 mm 339 W/m 14,6 C 19,1 C 1,6 km/h (1 Bft) 100 %
26.05.2014 15:30 19,2 C 19,1 C 19,2 C 73 % 1011,8 hPa 0,0 l/m 0,0 km/h (0 Bft) N-NW 327 10 min 0,000 mm 431 W/m 14,2 C 19,2 C 1,6 km/h (1 Bft) 100 %
26.05.2014 15:40 19,4 C 19,2 C 19,4 C 74 % 1011,4 hPa 0,0 l/m 0,4 km/h (0 Bft) N-NW 338 10 min 0,000 mm 469 W/m 14,6 C 19,4 C 4,8 km/h (1 Bft) 100 %
26.05.2014 15:50 19,6 C 19,4 C 19,6 C 73 % 1011,4 hPa 0,0 l/m 0,0 km/h (0 Bft) N-NW 337 10 min 0,000 mm 369 W/m 14,6 C 19,6 C 1,6 km/h (1 Bft) 100 %
26.05.2014 16:00 19,7 C 19,5 C 19,7 C 74 % 1011,3 hPa 0,0 l/m 1,6 km/h (1 Bft) NW 321 10 min 0,229 mm 404 W/m 14,9 C 19,7 C 6,4 km/h (2 Bft) 99 %
26.05.2014 16:10 19,8 C 19,7 C 19,8 C 75 % 1011,2 hPa 0,0 l/m 0,9 km/h (0 Bft) NW 323 10 min 0,000 mm 439 W/m 15,2 C 19,8 C 8,0 km/h (2 Bft) 100 %
26.05.2014 16:20 19,9 C 19,8 C 19,9 C 73 % 1011,1 hPa 0,0 l/m 1,1 km/h (1 Bft) NW 320 10 min 0,000 mm 504 W/m 14,9 C 19,9 C 6,4 km/h (2 Bft) 100 %
26.05.2014 16:30 20,2 C 19,9 C 20,2 C 72 % 1011,0 hPa 0,0 l/m 2,0 km/h (1 Bft) W 262 10 min 0,000 mm 459 W/m 15,0 C 20,2 C 9,7 km/h (2 Bft) 100 %
26.05.2014 16:40 20,2 C 20,2 C 20,3 C 71 % 1011,0 hPa 0,0 l/m 0,5 km/h (0 Bft) N 350 10 min 0,000 mm 355 W/m 14,8 C 20,2 C 4,8 km/h (1 Bft) 100 %
26.05.2014 16:50 20,3 C 20,2 C 20,3 C 71 % 1011,0 hPa 0,0 l/m 0,5 km/h (0 Bft) W-SW 257 10 min 0,000 mm 332 W/m 14,9 C 20,3 C 6,4 km/h (2 Bft) 100 %
26.05.2014 17:00 20,3 C 20,3 C 20,3 C 72 % 1010,9 hPa 0,0 l/m 1,5 km/h (1 Bft) W 272 10 min 0,228 mm 221 W/m 15,1 C 20,3 C 6,4 km/h (2 Bft) 100 %
26.05.2014 17:10 20,1 C 20,1 C 20,3 C 71 % 1010,9 hPa 0,0 l/m 0,6 km/h (0 Bft) W-NW 296 10 min 0,000 mm 179 W/m 14,7 C 20,1 C 9,7 km/h (2 Bft) 100 %
26.05.2014 17:20 19,8 C 19,8 C 20,1 C 74 % 1011,0 hPa 0,0 l/m 1,8 km/h (1 Bft) W-SW 245 10 min 0,000 mm 169 W/m 15,0 C 19,8 C 11,3 km/h (2 Bft) 100 %
26.05.2014 17:30 19,6 C 19,6 C 19,8 C 74 % 1011,0 hPa 0,0 l/m 0,8 km/h (0 Bft) W 268 10 min 0,000 mm 160 W/m 14,8 C 19,6 C 6,4 km/h (2 Bft) 100 %
26.05.2014 17:40 19,4 C 19,4 C 19,6 C 72 % 1011,0 hPa 0,0 l/m 1,7 km/h (1 Bft) W-SW 255 0 min 0,000 mm 114 W/m 14,2 C 19,4 C 9,7 km/h (2 Bft) 99 %
26.05.2014 17:50 19,3 C 19,3 C 19,4 C 75 % 1011,0 hPa 0,0 l/m 2,0 km/h (1 Bft) SW 223 0 min 0,000 mm 132 W/m 14,8 C 19,3 C 9,7 km/h (2 Bft) 100 %
26.05.2014 18:00 19,1 C 19,1 C 19,3 C 75 % 1010,9 hPa 0,0 l/m 3,1 km/h (1 Bft) W-SW 245 0 min 0,102 mm 120 W/m 14,6 C 19,1 C 11,3 km/h (2 Bft) 100 %
26.05.2014 18:10 18,9 C 18,9 C 19,1 C 75 % 1010,9 hPa 0,0 l/m 3,5 km/h (1 Bft) SW 234 0 min 0,000 mm 88 W/m 14,4 C 18,9 C 11,3 km/h (2 Bft) 100 %
26.05.2014 18:20 18,8 C 18,7 C 18,9 C 77 % 1010,8 hPa 0,0 l/m 3,4 km/h (1 Bft) SW 219 0 min 0,000 mm 111 W/m 14,7 C 18,8 C 9,7 km/h (2 Bft) 100 %
26.05.2014 18:30 18,6 C 18,6 C 18,8 C 77 % 1010,5 hPa 0,0 l/m 3,9 km/h (1 Bft) S-SW 211 0 min 0,000 mm 111 W/m 14,5 C 18,6 C 11,3 km/h (2 Bft) 100 %
26.05.2014 18:40 18,5 C 18,5 C 18,6 C 77 % 1010,5 hPa 0,0 l/m 4,9 km/h (1 Bft) SW 228 0 min 0,000 mm 63 W/m 14,4 C 18,5 C 9,7 km/h (2 Bft) 100 %
26.05.2014 18:50 18,3 C 18,3 C 18,5 C 78 % 1010,4 hPa 0,0 l/m 3,1 km/h (1 Bft) SW 236 0 min 0,000 mm 81 W/m 14,4 C 18,3 C 9,7 km/h (2 Bft) 100 %
26.05.2014 19:00 18,3 C 18,3 C 18,3 C 78 % 1010,4 hPa 0,0 l/m 0,6 km/h (0 Bft) SW 234 0 min 0,076 mm 65 W/m 14,4 C 18,3 C 6,4 km/h (2 Bft) 100 %
26.05.2014 19:10 18,2 C 18,2 C 18,3 C 80 % 1010,5 hPa 0,0 l/m 0,0 km/h (0 Bft) SW 233 0 min 0,000 mm 54 W/m 14,7 C 18,2 C 1,6 km/h (1 Bft) 99 %
26.05.2014 19:20 18,2 C 18,2 C 18,2 C 80 % 1010,4 hPa 0,0 l/m 0,7 km/h (0 Bft) SW 234 0 min 0,000 mm 42 W/m 14,7 C 18,2 C 6,4 km/h (2 Bft) 100 %
26.05.2014 19:30 18,1 C 18,1 C 18,2 C 79 % 1010,3 hPa 0,0 l/m 2,7 km/h (1 Bft) W 263 0 min 0,000 mm 37 W/m 14,4 C 18,1 C 8,0 km/h (2 Bft) 100 %
26.05.2014 19:40 17,9 C 17,9 C 18,1 C 80 % 1010,4 hPa 0,0 l/m 0,8 km/h (0 Bft) W 262 0 min 0,000 mm 30 W/m 14,4 C 17,9 C 6,4 km/h (2 Bft) 100 %
26.05.2014 19:50 17,8 C 17,8 C 17,9 C 81 % 1010,3 hPa 0,0 l/m 0,0 km/h (0 Bft) W 262 0 min 0,000 mm 23 W/m 14,5 C 17,8 C 1,6 km/h (1 Bft) 99 %
26.05.2014 20:00 17,6 C 17,6 C 17,8 C 83 % 1010,4 hPa 0,0 l/m 0,2 km/h (0 Bft) W 262 0 min 0,025 mm 21 W/m 14,7 C 17,6 C 3,2 km/h (1 Bft) 100 %
26.05.2014 20:10 17,1 C 17,1 C 17,6 C 85 % 1010,3 hPa 0,2 l/m 1,3 km/h (1 Bft) SW 230 0 min 0,000 mm 16 W/m 14,6 C 17,1 C 4,8 km/h (1 Bft) 100 %
26.05.2014 20:20 16,7 C 16,7 C 17,1 C 85 % 1010,3 hPa 0,0 l/m 0,0 km/h (0 Bft) SW 229 0 min 0,000 mm 11 W/m 14,2 C 16,7 C 0,0 km/h (0 Bft) 100 %
26.05.2014 20:30 16,5 C 16,5 C 16,7 C 85 % 1010,5 hPa 0,0 l/m 0,0 km/h (0 Bft) SW 232 0 min 0,000 mm 7 W/m 14,0 C 16,5 C 1,6 km/h (1 Bft) 100 %
26.05.2014 20:40 16,4 C 16,4 C 16,5 C 86 % 1010,4 hPa 0,0 l/m 0,0 km/h (0 Bft) SW 232 0 min 0,000 mm 5 W/m 14,1 C 16,4 C 0,0 km/h (0 Bft) 100 %
26.05.2014 20:50 16,3 C 16,3 C 16,4 C 86 % 1010,4 hPa 0,0 l/m 0,0 km/h (0 Bft) SW 232 0 min 0,000 mm 0 W/m 14,0 C 16,3 C 1,6 km/h (1 Bft) 100 %
26.05.2014 21:00 16,1 C 16,1 C 16,3 C 86 % 1010,5 hPa 0,0 l/m 0,0 km/h (0 Bft) SW 232 0 min 0,000 mm 0 W/m 13,8 C 16,1 C 0,0 km/h (0 Bft) 100 %
26.05.2014 21:10 16,0 C 16,0 C 16,1 C 86 % 1010,4 hPa 0,0 l/m 0,0 km/h (0 Bft) N 0 0 min 0,000 mm 0 W/m 13,7 C 16,0 C 0,0 km/h (0 Bft) 97 %
26.05.2014 21:20 15,9 C 15,9 C 16,0 C 87 % 1010,4 hPa 0,0 l/m 0,0 km/h (0 Bft) N 0 0 min 0,000 mm 0 W/m 13,7 C 15,9 C 0,0 km/h (0 Bft) 97 %
26.05.2014 21:30 15,7 C 15,7 C 15,9 C 86 % 1010,4 hPa 0,0 l/m 0,0 km/h (0 Bft) N 0 0 min 0,000 mm 0 W/m 13,4 C 15,7 C 0,0 km/h (0 Bft) 97 %
26.05.2014 21:40 15,7 C 15,7 C 15,7 C 87 % 1010,4 hPa 0,0 l/m 0,0 km/h (0 Bft) SW 225 0 min 0,000 mm 0 W/m 13,5 C 15,7 C 1,6 km/h (1 Bft) 97 %
26.05.2014 21:50 15,6 C 15,6 C 15,7 C 87 % 1010,4 hPa 0,0 l/m 0,0 km/h (0 Bft) SW 225 0 min 0,000 mm 0 W/m 13,4 C 15,6 C 4,8 km/h (1 Bft) 98 %
26.05.2014 22:00 15,2 C 15,2 C 15,6 C 87 % 1010,5 hPa 0,2 l/m 0,0 km/h (0 Bft) SW 225 0 min 0,000 mm 0 W/m 13,0 C 15,2 C 4,8 km/h (1 Bft) 97 %
26.05.2014 22:10 14,8 C 14,8 C 15,2 C 86 % 1010,4 hPa 0,0 l/m 0,0 km/h (0 Bft) SW 225 0 min 0,000 mm 0 W/m 12,5 C 14,8 C 3,2 km/h (1 Bft) 96 %
26.05.2014 22:20 14,5 C 14,5 C 14,7 C 87 % 1010,4 hPa 0,0 l/m 0,0 km/h (0 Bft) SW 225 0 min 0,000 mm 0 W/m 12,4 C 14,5 C 4,8 km/h (1 Bft) 98 %
26.05.2014 22:30 14,3 C 14,3 C 14,5 C 87 % 1010,4 hPa 0,0 l/m 0,0 km/h (0 Bft) SW 225 0 min 0,000 mm 0 W/m 12,2 C 14,3 C 1,6 km/h (1 Bft) 98 %
26.05.2014 22:40 14,2 C 14,2 C 14,3 C 87 % 1010,2 hPa 0,0 l/m 0,0 km/h (0 Bft) SW 225 0 min 0,000 mm 0 W/m 12,1 C 14,2 C 1,6 km/h (1 Bft) 98 %
26.05.2014 22:50 14,0 C 14,0 C 14,2 C 87 % 1010,3 hPa 0,0 l/m 0,0 km/h (0 Bft) SW 225 0 min 0,000 mm 0 W/m 11,9 C 14,0 C 3,2 km/h (1 Bft) 97 %
26.05.2014 23:00 13,9 C 13,9 C 14,0 C 87 % 1010,2 hPa 0,0 l/m 1,6 km/h (1 Bft) SW 225 0 min 0,000 mm 0 W/m 11,8 C 13,9 C 4,8 km/h (1 Bft) 98 %
26.05.2014 23:10 13,7 C 13,7 C 13,9 C 87 % 1010,0 hPa 0,2 l/m 0,0 km/h (0 Bft) N 0 0 min 0,000 mm 0 W/m 11,6 C 13,7 C 0,0 km/h (0 Bft) 97 %
26.05.2014 23:20 13,7 C 13,7 C 13,7 C 87 % 1010,1 hPa 0,0 l/m 0,0 km/h (0 Bft) SW 225 0 min 0,000 mm 0 W/m 11,6 C 13,7 C 1,6 km/h (1 Bft) 98 %
26.05.2014 23:30 13,6 C 13,6 C 13,7 C 87 % 1010,1 hPa 0,0 l/m 0,0 km/h (0 Bft) N 0 0 min 0,000 mm 0 W/m 11,5 C 13,6 C 0,0 km/h (0 Bft) 98 %
26.05.2014 23:40 13,4 C 13,4 C 13,6 C 87 % 1010,1 hPa 0,0 l/m 0,0 km/h (0 Bft) N 0 0 min 0,000 mm 0 W/m 11,3 C 13,4 C 0,0 km/h (0 Bft) 98 %
26.05.2014 23:50 13,5 C 13,4 C 13,5 C 87 % 1010,1 hPa 0,0 l/m 0,0 km/h (0 Bft) N 0 0 min 0,000 mm 0 W/m 11,4 C 13,5 C 0,0 km/h (0 Bft) 98 %
_ Min-Zeit 05:10 05:10 05:20 01:50 23:10 - 00:00 - - - - - 00:10 05:10 00:00 00:10
Minimum _ 12,3 C 12,3 C 12,3 C 65 % 1010,0 hPa - 0,0 km/h (0 Bft) - - - - - 9,0 C 12,3 C 0,0 km/h (0 Bft) 90 %
_ Max-Zeit 16:40 17:00 16:40 04:10 02:40 02:40 01:50 - - 11:00 15:00 13:40 16:10 16:50 01:40 00:00
Maximum _ 20,3 C 20,3 C 20,3 C 87 % 1016,2 hPa 2,6 l/m 6,4 km/h
SO (2 Bft)
- - 20 min 0,254 mm 582 W/m 15,2 C 20,3 C 22,5 km/h
S-SW (4 Bft)
100 %
Durchschnitt _ 15,6 C 15,5 C 15,6 C 82 % 1013,0 hPa #6,8 l/m 0,7 km/h (0 Bft) SW - #8:10 h #1,803 mm 217 W/m 12,3 C 15,6 C 4,4 km/h (1 Bft) 99 %
PRIVATE WETTERSTATION BILLIGHEIM-ALLFELD - www.neckar-odenwald-wetter.de - Holger Sonntag